Time;durP1;ratioP1;P1;durP2;ratioP2;P2;SDS_P1;SDS_P2;PMS_P1;PMS_P2;Temp;Humidity;BMP_temperature;BMP_pressure;BME280_temperature;BME280_humidity;BME280_pressure;Samples;Min_cycle;Max_cycle;Signal;HPM_P1;HPM_P2
2022/07/23 00:01:08;;;;;;;5.53;3.53;;;;;;;16.03;82.97;101697.81;4933970;28;20472;-46
2022/07/23 00:03:36;;;;;;;3.70;3.40;;;;;;;16.02;83.34;101697.00;4933935;29;20441;-46
2022/07/23 00:06:03;;;;;;;4.90;4.50;;;;;;;16.02;83.35;101699.69;4934215;29;20464;-48
2022/07/23 00:08:37;;;;;;;3.80;3.50;;;;;;;16.02;83.20;101698.84;4934467;29;20883;-43
2022/07/23 00:11:06;;;;;;;4.10;3.70;;;;;;;16.01;82.77;101705.25;4934018;28;20472;-44
2022/07/23 00:13:33;;;;;;;5.43;4.00;;;;;;;16.02;82.88;101697.00;4934382;29;20443;-42
2022/07/23 00:16:01;;;;;;;5.33;4.30;;;;;;;15.98;82.62;101698.44;4934661;29;20476;-44
2022/07/23 00:18:28;;;;;;;4.30;4.00;;;;;;;16.02;83.21;101702.38;4934666;29;20436;-45
2022/07/23 00:20:56;;;;;;;4.20;3.93;;;;;;;16.02;83.17;101704.22;4934140;28;20449;-44
2022/07/23 00:23:25;;;;;;;5.03;3.90;;;;;;;16.03;82.92;101704.03;4934727;29;20440;-42
2022/07/23 00:25:54;;;;;;;3.73;3.43;;;;;;;16.05;82.71;101703.81;4934605;29;21026;-44
2022/07/23 00:28:22;;;;;;;7.13;3.97;;;;;;;16.04;82.49;101697.59;4938161;29;20476;-42
2022/07/23 00:30:49;;;;;;;7.43;4.50;;;;;;;16.01;82.44;101692.63;4937914;28;20460;-44
2022/07/23 00:33:17;;;;;;;9.47;4.53;;;;;;;15.99;82.40;101677.75;4938117;29;20524;-45
2022/07/23 00:35:45;;;;;;;6.30;4.13;;;;;;;15.97;82.60;101691.41;4938437;29;20445;-42
2022/07/23 00:38:13;;;;;;;4.70;4.30;;;;;;;15.96;82.71;101692.44;4937651;29;20436;-44
2022/07/23 00:40:41;;;;;;;4.40;4.10;;;;;;;15.96;82.80;101694.31;4936908;28;20447;-44
2022/07/23 00:43:10;;;;;;;7.60;4.43;;;;;;;15.95;82.95;101684.56;4937063;29;20436;-45
2022/07/23 00:45:38;;;;;;;8.70;4.20;;;;;;;15.93;82.92;101684.78;4937450;29;20791;-44
2022/07/23 00:48:06;;;;;;;8.00;4.17;;;;;;;15.89;82.86;101682.72;4937294;29;20479;-44
2022/07/23 00:50:33;;;;;;;5.90;4.63;;;;;;;15.90;83.58;101681.69;4936706;28;20437;-46
2022/07/23 00:53:01;;;;;;;6.53;4.30;;;;;;;15.85;83.32;101682.31;4936973;29;20517;-46
2022/07/23 00:55:29;;;;;;;6.70;4.83;;;;;;;15.85;83.37;101685.00;4937094;29;20448;-44
2022/07/23 00:57:58;;;;;;;7.47;4.67;;;;;;;15.85;83.43;101679.63;4936841;29;20441;-44
2022/07/23 01:00:26;;;;;;;5.03;4.63;;;;;;;15.85;83.46;101690.41;4937431;29;20437;-44
2022/07/23 01:02:54;;;;;;;4.57;4.17;;;;;;;15.85;83.41;101684.19;4935813;29;20987;-44
2022/07/23 01:05:22;;;;;;;4.87;4.43;;;;;;;15.86;83.29;101694.72;4937178;29;20440;-45
2022/07/23 01:07:50;;;;;;;5.40;4.20;;;;;;;15.87;83.37;101684.78;4937313;29;20482;-44
2022/07/23 01:10:32;;;;;;;7.57;4.37;;;;;;;15.85;83.17;101686.88;4937099;29;20483;-43
2022/07/23 01:13:01;;;;;;;6.03;4.30;;;;;;;15.87;83.40;101685.63;4936948;29;20452;-44
2022/07/23 01:15:31;;;;;;;6.80;4.53;;;;;;;15.86;83.36;101689.34;4937136;29;20429;-44
2022/07/23 01:17:58;;;;;;;9.07;5.10;;;;;;;15.88;83.62;101684.59;4936770;29;20445;-45
2022/07/23 01:20:26;;;;;;;5.90;4.87;;;;;;;15.90;83.96;101687.06;4936879;29;20463;-46
2022/07/23 01:22:56;;;;;;;5.67;4.63;;;;;;;15.87;84.05;101687.47;4935989;28;20473;-44
2022/07/23 01:25:24;;;;;;;6.37;4.80;;;;;;;15.87;84.49;101687.47;4936896;29;20437;-43
2022/07/23 01:27:52;;;;;;;10.03;5.20;;;;;;;15.87;84.89;101682.09;4936599;29;20465;-42
2022/07/23 01:30:20;;;;;;;10.43;5.00;;;;;;;15.86;84.61;101692.03;4936720;29;20476;-48
2022/07/23 01:32:48;;;;;;;11.20;4.90;;;;;;;15.82;84.80;101676.53;4935811;28;20487;-45
2022/07/23 01:35:16;;;;;;;6.00;4.50;;;;;;;15.82;84.90;101673.84;4936336;29;20432;-45
2022/07/23 01:37:43;;;;;;;5.63;5.13;;;;;;;15.82;85.29;101679.22;4936094;29;20487;-42
2022/07/23 01:40:13;;;;;;;6.20;5.17;;;;;;;15.81;85.47;101677.56;4936307;29;20432;-45
2022/07/23 01:42:40;;;;;;;8.07;5.10;;;;;;;15.80;85.51;101662.47;4935818;28;20473;-46
2022/07/23 01:45:09;;;;;;;12.20;4.73;;;;;;;15.77;85.99;101665.59;4936265;29;20443;-44
2022/07/23 01:47:37;;;;;;;5.53;5.03;;;;;;;15.79;86.23;101675.09;4936140;29;20463;-46
2022/07/23 01:50:05;;;;;;;12.00;6.37;;;;;;;15.76;86.35;101669.28;4936272;29;20485;-45
2022/07/23 01:52:33;;;;;;;6.50;5.40;;;;;;;15.76;86.73;101664.75;4935602;28;20468;-42
2022/07/23 01:55:00;;;;;;;8.83;5.03;;;;;;;15.74;86.89;101660.63;4935967;29;20444;-45
2022/07/23 01:57:29;;;;;;;4.90;4.60;;;;;;;15.72;86.95;101662.66;4936149;29;20476;-43
2022/07/23 01:59:57;;;;;;;10.37;5.40;;;;;;;15.70;87.34;101659.38;4936189;29;20456;-46
2022/07/23 02:02:24;;;;;;;6.87;4.90;;;;;;;15.71;87.40;101664.53;4935122;28;20460;-44
2022/07/23 02:04:52;;;;;;;6.07;5.23;;;;;;;15.68;87.29;101659.56;4935980;29;20444;-42
2022/07/23 02:07:20;;;;;;;4.70;4.40;;;;;;;15.70;87.64;101662.06;4936053;29;20688;-44
2022/07/23 02:09:47;;;;;;;7.60;5.50;;;;;;;15.70;87.64;101652.13;4935962;29;20481;-44
2022/07/23 02:12:15;;;;;;;5.63;4.23;;;;;;;15.67;87.53;101654.41;4935188;28;20491;-44
2022/07/23 02:14:44;;;;;;;5.10;4.70;;;;;;;15.67;87.88;101652.53;4935753;29;20440;-44
2022/07/23 02:17:12;;;;;;;11.77;5.10;;;;;;;15.70;88.05;101654.81;4935575;29;20510;-44
2022/07/23 02:19:39;;;;;;;4.83;4.53;;;;;;;15.69;87.96;101653.16;4935557;29;20447;-47
2022/07/23 02:22:07;;;;;;;5.93;5.30;;;;;;;15.69;87.91;101650.47;4934958;28;20473;-47
2022/07/23 02:24:35;;;;;;;7.00;4.43;;;;;;;15.69;87.62;101653.16;4935703;29;20440;-43
2022/07/23 02:27:02;;;;;;;7.33;4.77;;;;;;;15.67;87.36;101657.94;4935477;29;20468;-48
2022/07/23 02:29:30;;;;;;;5.73;4.70;;;;;;;15.66;87.33;101658.94;4935242;29;20476;-48
2022/07/23 02:31:59;;;;;;;8.00;5.27;;;;;;;15.65;87.30;101645.72;4934633;28;20468;-45
2022/07/23 02:34:27;;;;;;;7.30;4.90;;;;;;;15.66;87.23;101648.19;4935268;29;20464;-46
2022/07/23 02:36:54;;;;;;;7.00;5.27;;;;;;;15.65;87.44;101657.28;4935326;29;20460;-44
2022/07/23 02:39:22;;;;;;;8.57;5.20;;;;;;;15.62;87.13;101652.31;4935419;29;20437;-45
2022/07/23 02:41:49;;;;;;;5.70;5.20;;;;;;;15.63;87.51;101658.53;4934691;28;20475;-48
2022/07/23 02:44:17;;;;;;;6.27;5.30;;;;;;;15.60;88.14;101650.88;4935548;29;20441;-43
2022/07/23 02:46:44;;;;;;;6.57;5.20;;;;;;;15.60;88.23;101649.03;4935246;29;20466;-47
2022/07/23 02:49:14;;;;;;;7.10;4.77;;;;;;;15.60;88.09;101651.72;4934964;29;20930;-44
2022/07/23 02:51:42;;;;;;;6.10;5.20;;;;;;;15.58;88.31;101655.66;4935021;28;20476;-43
2022/07/23 02:54:09;;;;;;;5.60;5.00;;;;;;;15.53;88.38;101650.88;4935010;29;20487;-43
2022/07/23 02:56:37;;;;;;;6.47;4.70;;;;;;;15.50;89.15;101645.94;4934943;29;20460;-45
2022/07/23 02:59:05;;;;;;;7.33;5.60;;;;;;;15.49;88.92;101645.09;4935183;29;20444;-47
2022/07/23 03:01:33;;;;;;;5.03;4.50;;;;;;;15.52;89.56;101640.34;4933217;28;20475;-43
2022/07/23 03:04:01;;;;;;;8.03;5.90;;;;;;;15.48;89.52;101640.75;4935010;29;20432;-46
2022/07/23 03:06:30;;;;;;;5.43;4.93;;;;;;;15.51;89.61;101644.88;4934991;29;20460;-43
2022/07/23 03:08:57;;;;;;;5.00;4.60;;;;;;;15.51;89.67;101644.88;4934818;29;20436;-47
2022/07/23 03:11:25;;;;;;;7.63;5.07;;;;;;;15.52;89.49;101651.09;4934588;28;20507;-45
2022/07/23 03:13:54;;;;;;;5.70;5.10;;;;;;;15.50;89.24;101622.53;4935340;29;20437;-44
2022/07/23 03:16:22;;;;;;;4.37;4.07;;;;;;;15.51;89.24;101618.00;4934599;29;20480;-45
2022/07/23 03:18:49;;;;;;;5.83;5.30;;;;;;;15.51;89.20;101634.13;4934739;29;20437;-44
2022/07/23 03:21:17;;;;;;;5.37;4.80;;;;;;;15.50;88.88;101629.81;4934321;28;20473;-46
2022/07/23 03:23:46;;;;;;;9.70;5.47;;;;;;;15.47;88.67;101627.53;4934471;29;20428;-47
2022/07/23 03:26:13;;;;;;;8.37;4.90;;;;;;;15.46;88.64;101628.53;4934755;29;20561;-45
2022/07/23 03:28:41;;;;;;;6.27;4.50;;;;;;;15.47;88.90;101631.03;4934760;29;20436;-46
2022/07/23 03:31:09;;;;;;;7.43;5.37;;;;;;;15.47;88.88;101635.59;4934021;28;21015;-45
2022/07/23 03:33:37;;;;;;;5.60;4.90;;;;;;;15.49;89.00;101638.91;4934486;29;20443;-44
2022/07/23 03:36:05;;;;;;;10.60;5.50;;;;;;;15.47;88.53;101638.28;4934271;29;20457;-45
2022/07/23 03:38:36;;;;;;;5.20;4.70;;;;;;;15.50;88.94;101635.19;4935301;29;20780;-45
2022/07/23 03:41:05;;;;;;;8.80;5.90;;;;;;;15.47;89.15;101636.41;4934499;28;20464;-45
2022/07/23 03:43:34;;;;;;;6.93;5.70;;;;;;;15.47;89.29;101638.28;4934934;29;20938;-42
2022/07/23 03:46:01;;;;;;;7.10;4.67;;;;;;;15.45;89.22;101632.25;4934710;29;20469;-44
2022/07/23 03:48:29;;;;;;;8.93;5.83;;;;;;;15.45;89.17;101634.94;4935108;29;20488;-42
2022/07/23 03:50:57;;;;;;;9.33;5.40;;;;;;;15.44;89.57;101638.66;4934462;28;20540;-44
2022/07/23 03:53:24;;;;;;;14.23;5.30;;;;;;;15.36;89.39;101631.63;4934906;29;20437;-44
2022/07/23 03:55:52;;;;;;;15.47;6.03;;;;;;;15.33;90.12;101636.56;4935031;29;20456;-44
2022/07/23 03:58:21;;;;;;;7.83;5.70;;;;;;;15.31;90.52;101636.81;4934776;29;20446;-47
2022/07/23 04:00:49;;;;;;;7.67;4.77;;;;;;;15.30;90.39;101632.44;4934377;28;20455;-44
2022/07/23 04:03:16;;;;;;;8.13;5.50;;;;;;;15.32;90.97;101633.06;4937990;29;20443;-46
2022/07/23 04:05:44;;;;;;;5.43;4.90;;;;;;;15.31;90.57;101633.28;4933150;29;20997;-43
2022/07/23 04:08:12;;;;;;;7.30;4.77;;;;;;;15.25;90.70;101626.03;4935710;29;20823;-43
2022/07/23 04:10:39;;;;;;;6.20;5.23;;;;;;;15.21;91.97;101627.47;4938548;28;20563;-44
2022/07/23 04:13:07;;;;;;;11.60;5.17;;;;;;;15.15;92.18;101623.75;4976655;28;20439;-46
2022/07/23 04:15:37;;;;;;;9.13;4.43;;;;;;;15.12;92.66;101618.78;4976472;28;20439;-43
2022/07/23 04:18:05;;;;;;;8.87;3.80;;;;;;;15.02;91.78;101623.75;4977231;28;20445;-44
2022/07/23 04:20:33;;;;;;;4.47;4.07;;;;;;;15.06;92.15;101627.66;4976060;28;20798;-42
2022/07/23 04:23:07;;;;;;;6.23;4.50;;;;;;;15.16;92.30;101624.59;4976590;28;20514;-44
2022/07/23 04:25:34;;;;;;;5.53;4.70;;;;;;;15.17;92.40;101620.88;4976487;28;20449;-44
2022/07/23 04:28:02;;;;;;;7.93;4.40;;;;;;;15.23;92.81;101626.22;4976418;28;20446;-44
2022/07/23 04:30:29;;;;;;;7.97;4.50;;;;;;;15.22;93.12;101618.38;4976384;28;20485;-44
2022/07/23 04:32:58;;;;;;;5.43;4.67;;;;;;;15.22;94.00;101613.84;4967352;28;20451;-44
2022/07/23 04:35:26;;;;;;;5.27;4.40;;;;;;;15.25;93.73;101613.44;4951601;29;20432;-43
2022/07/23 04:37:54;;;;;;;6.03;4.57;;;;;;;15.32;93.49;101613.44;4956945;29;20460;-42
2022/07/23 04:40:21;;;;;;;4.73;4.03;;;;;;;15.37;93.83;101619.00;4956988;28;20427;-44
2022/07/23 04:42:49;;;;;;;4.07;3.77;;;;;;;15.46;93.41;101615.09;4956024;28;20467;-44
2022/07/23 04:45:17;;;;;;;6.17;4.47;;;;;;;15.53;92.40;101610.56;4957335;28;20443;-43
2022/07/23 04:47:46;;;;;;;6.07;4.50;;;;;;;15.67;92.10;101614.91;4956363;28;20467;-43
2022/07/23 04:50:18;;;;;;;6.40;4.80;;;;;;;15.74;91.26;101621.09;4956408;28;20436;-48
2022/07/23 04:52:46;;;;;;;6.50;4.30;;;;;;;15.84;90.07;101612.59;4955856;28;20493;-44
2022/07/23 04:55:13;;;;;;;4.57;4.17;;;;;;;15.89;89.17;101618.16;4956175;28;20524;-43
2022/07/23 04:57:41;;;;;;;4.63;4.00;;;;;;;15.99;89.00;101613.19;4956266;28;20826;-44
2022/07/23 05:00:10;;;;;;;6.33;3.73;;;;;;;16.09;88.20;101618.97;4956329;28;20428;-44
2022/07/23 05:02:37;;;;;;;5.30;3.90;;;;;;;16.20;87.42;101617.47;4938732;28;20461;-45
2022/07/23 05:05:06;;;;;;;5.70;4.50;;;;;;;16.28;86.50;101617.22;4937020;29;20441;-45
2022/07/23 05:07:35;;;;;;;4.73;3.70;;;;;;;16.31;85.68;101619.47;4937056;29;20897;-44
2022/07/23 05:10:02;;;;;;;4.17;3.67;;;;;;;16.38;85.62;101623.00;4937229;29;20775;-44
2022/07/23 05:12:30;;;;;;;3.97;3.67;;;;;;;16.42;84.70;101624.22;4935635;28;20476;-46
2022/07/23 05:14:58;;;;;;;8.00;4.10;;;;;;;16.45;84.25;101621.94;4936253;29;20447;-44
2022/07/23 05:17:25;;;;;;;6.80;3.80;;;;;;;16.49;83.24;101625.84;4936617;29;20473;-43
2022/07/23 05:19:53;;;;;;;5.27;3.90;;;;;;;16.50;82.78;101630.19;4936732;29;20441;-44
2022/07/23 05:22:27;;;;;;;4.23;3.63;;;;;;;16.52;82.00;101636.19;4935883;28;20464;-44
2022/07/23 05:24:56;;;;;;;5.70;3.80;;;;;;;16.53;81.65;101640.53;4936914;29;20524;-44
2022/07/23 05:27:23;;;;;;;5.40;4.00;;;;;;;16.56;81.89;101637.44;4936587;29;20541;-45
2022/07/23 05:29:51;;;;;;;9.03;4.17;;;;;;;16.39;81.43;101632.72;4936482;29;20456;-44
2022/07/23 05:32:18;;;;;;;6.03;3.70;;;;;;;16.53;83.38;101631.63;4933206;28;20480;-48
2022/07/23 05:34:46;;;;;;;4.20;3.57;;;;;;;16.65;83.35;101643.41;4935327;29;20437;-46
2022/07/23 05:37:14;;;;;;;4.60;3.70;;;;;;;16.63;81.85;101632.03;4934747;29;20464;-45
2022/07/23 05:39:41;;;;;;;4.57;3.73;;;;;;;16.76;81.82;101637.34;4935937;29;20443;-47
2022/07/23 05:42:10;;;;;;;4.70;3.10;;;;;;;16.64;79.33;101630.97;4935274;28;20468;-44
2022/07/23 05:44:38;;;;;;;4.60;3.80;;;;;;;16.59;79.52;101622.72;4935298;29;20441;-45
2022/07/23 05:47:05;;;;;;;6.63;3.73;;;;;;;16.56;79.51;101639.31;4936051;29;20468;-44
2022/07/23 05:49:33;;;;;;;3.80;3.50;;;;;;;16.59;79.00;101642.41;4936011;29;20443;-45
2022/07/23 05:52:04;;;;;;;3.17;2.97;;;;;;;16.63;78.26;101633.91;4935784;28;20476;-45
2022/07/23 05:54:34;;;;;;;4.07;3.77;;;;;;;16.78;79.54;101632.56;4936101;29;20981;-42
2022/07/23 05:57:02;;;;;;;5.93;3.73;;;;;;;16.92;78.37;101631.44;4936142;29;20455;-46
2022/07/23 05:59:31;;;;;;;4.43;3.20;;;;;;;17.03;78.23;101629.91;4936033;29;20440;-48
2022/07/23 06:01:58;;;;;;;6.93;3.87;;;;;;;17.04;77.05;101631.59;4933510;28;20487;-45
2022/07/23 06:04:26;;;;;;;5.33;3.50;;;;;;;17.04;75.88;101632.41;4935647;29;20436;-46
2022/07/23 06:06:54;;;;;;;4.20;3.70;;;;;;;16.96;77.13;101630.00;4935916;29;20460;-48
2022/07/23 06:09:21;;;;;;;5.20;3.67;;;;;;;16.88;75.87;101629.38;4935815;29;20763;-44
2022/07/23 06:11:49;;;;;;;4.47;4.00;;;;;;;16.88;75.78;101634.78;4935141;28;20524;-49
2022/07/23 06:14:16;;;;;;;5.43;3.50;;;;;;;16.87;76.72;101628.59;4935736;29;20440;-44
2022/07/23 06:16:45;;;;;;;4.00;3.70;;;;;;;16.85;78.34;101633.34;4934955;29;20472;-47
2022/07/23 06:19:13;;;;;;;5.10;4.07;;;;;;;16.98;79.04;101640.53;4935676;29;20437;-45
2022/07/23 06:21:40;;;;;;;4.17;3.80;;;;;;;16.91;78.58;101632.47;4935233;28;20496;-43
2022/07/23 06:24:14;;;;;;;8.27;3.80;;;;;;;17.06;79.13;101642.97;4939812;28;20933;-43
2022/07/23 06:26:42;;;;;;;4.27;3.97;;;;;;;17.06;77.65;101643.78;4935555;29;20822;-46
2022/07/23 06:29:09;;;;;;;3.73;3.40;;;;;;;17.15;78.84;101647.88;4935321;29;20440;-46
2022/07/23 06:31:37;;;;;;;3.90;3.70;;;;;;;17.27;78.77;101650.69;4935101;28;20483;-44
2022/07/23 06:34:06;;;;;;;4.47;3.57;;;;;;;17.26;76.75;101657.16;4934510;29;20436;-44
2022/07/23 06:36:34;;;;;;;4.23;3.60;;;;;;;17.18;75.80;101649.31;4932362;29;20469;-45
2022/07/23 06:39:02;;;;;;;4.00;3.70;;;;;;;16.95;75.86;101647.19;4934964;29;20472;-49
2022/07/23 06:41:32;;;;;;;4.27;3.47;;;;;;;17.05;78.12;101646.72;4934504;28;20460;-47
2022/07/23 06:43:59;;;;;;;5.70;3.40;;;;;;;17.02;77.93;101650.66;4934880;29;20437;-47
2022/07/23 06:46:27;;;;;;;4.57;3.60;;;;;;;17.06;77.64;101651.88;4934293;29;20471;-48
2022/07/23 06:48:55;;;;;;;6.17;3.50;;;;;;;17.11;77.70;101646.66;4934827;29;20440;-45
2022/07/23 06:51:24;;;;;;;5.00;3.87;;;;;;;17.09;77.43;101637.97;4934423;28;20471;-45
2022/07/23 06:53:52;;;;;;;3.83;3.63;;;;;;;17.11;76.89;101643.16;4934645;29;20456;-47
2022/07/23 06:56:19;;;;;;;3.70;3.40;;;;;;;17.16;77.40;101637.94;4934685;29;20470;-44
2022/07/23 06:58:47;;;;;;;7.77;3.80;;;;;;;17.30;77.56;101641.34;4934982;29;20432;-45
2022/07/23 07:01:15;;;;;;;3.87;3.57;;;;;;;17.41;77.92;101638.75;4933031;28;20551;-43
2022/07/23 07:03:43;;;;;;;3.80;3.50;;;;;;;17.49;77.00;101643.06;4934126;29;20527;-43
2022/07/23 07:06:11;;;;;;;3.93;3.63;;;;;;;17.56;75.80;101658.16;4934681;29;20486;-45
2022/07/23 07:08:40;;;;;;;5.93;3.80;;;;;;;17.66;75.63;101655.81;4934415;29;20958;-44
2022/07/23 07:11:08;;;;;;;4.00;3.73;;;;;;;17.71;74.77;101647.06;4934102;28;20465;-44
2022/07/23 07:13:36;;;;;;;6.23;4.37;;;;;;;17.69;74.40;101654.53;4934480;29;20484;-47
2022/07/23 07:16:04;;;;;;;3.67;3.40;;;;;;;17.67;73.91;101649.38;4934286;29;20468;-44
2022/07/23 07:18:32;;;;;;;6.83;4.23;;;;;;;17.63;74.28;101650.03;4934537;29;20463;-46
2022/07/23 07:20:59;;;;;;;4.00;3.47;;;;;;;17.68;74.97;101650.22;4934044;28;20468;-42
2022/07/23 07:23:27;;;;;;;4.00;3.60;;;;;;;17.67;75.12;101656.63;4934232;29;20553;-47
2022/07/23 07:25:56;;;;;;;8.90;6.50;;;;;;;17.68;75.15;101658.31;4934603;29;20818;-42
2022/07/23 07:28:23;;;;;;;4.13;3.80;;;;;;;17.72;75.18;101669.44;4932505;29;20440;-45
2022/07/23 07:30:51;;;;;;;4.33;3.83;;;;;;;17.61;74.92;101660.22;4933851;28;20441;-42
2022/07/23 07:33:20;;;;;;;3.70;3.30;;;;;;;17.62;74.97;101651.09;4932180;29;20567;-45
2022/07/23 07:35:48;;;;;;;7.43;3.73;;;;;;;17.74;75.45;101652.00;4933729;29;20436;-44
2022/07/23 07:38:16;;;;;;;10.80;4.23;;;;;;;17.83;75.51;101657.97;4938557;29;20436;-45
2022/07/23 07:40:44;;;;;;;5.10;3.80;;;;;;;17.84;74.14;101657.72;4938123;28;20447;-46
2022/07/23 07:43:13;;;;;;;4.27;3.97;;;;;;;18.00;74.45;101659.84;4936921;29;20926;-45
2022/07/23 07:45:40;;;;;;;5.93;4.13;;;;;;;18.02;73.27;101663.16;4938200;29;20436;-47
2022/07/23 07:48:08;;;;;;;4.37;3.93;;;;;;;18.04;73.80;101671.03;4938255;29;20452;-46
2022/07/23 07:50:35;;;;;;;6.50;4.30;;;;;;;17.99;73.47;101669.00;4938338;28;20535;-43
2022/07/23 07:53:04;;;;;;;3.93;3.67;;;;;;;17.96;73.80;101669.44;4937918;29;20562;-49
2022/07/23 07:55:32;;;;;;;3.87;3.60;;;;;;;17.85;74.00;101672.03;4938315;29;20432;-45
2022/07/23 07:57:59;;;;;;;5.17;3.90;;;;;;;17.67;74.54;101678.22;4937543;29;20942;-46
2022/07/23 08:00:31;;;;;;;5.40;3.70;;;;;;;17.55;74.91;101683.50;4938093;29;20436;-48
2022/07/23 08:02:59;;;;;;;4.23;3.83;;;;;;;17.41;76.73;101681.09;4956902;29;20813;-43
2022/07/23 08:05:29;;;;;;;4.37;4.03;;;;;;;17.31;78.53;101686.13;4957257;28;21001;-44
2022/07/23 08:07:58;;;;;;;4.43;4.03;;;;;;;17.10;81.14;101682.75;4956549;28;20446;-43
2022/07/23 08:10:28;;;;;;;4.93;4.37;;;;;;;16.87;82.77;101689.72;4957094;28;20447;-46
2022/07/23 08:12:57;;;;;;;5.10;4.40;;;;;;;16.95;86.06;101686.78;4956166;28;20483;-48
2022/07/23 08:15:26;;;;;;;5.33;4.83;;;;;;;17.03;85.96;101690.03;4956904;28;20446;-46
2022/07/23 08:17:56;;;;;;;4.80;4.50;;;;;;;17.19;86.59;101693.25;4955637;28;20467;-45
2022/07/23 08:20:25;;;;;;;7.07;5.10;;;;;;;17.28;86.13;101690.09;4955402;28;20522;-44
2022/07/23 08:22:57;;;;;;;4.53;4.17;;;;;;;17.39;86.04;101693.94;4955488;28;20474;-46
2022/07/23 08:25:27;;;;;;;5.60;4.77;;;;;;;17.47;85.25;101693.72;4955453;28;20514;-44
2022/07/23 08:27:55;;;;;;;4.50;4.30;;;;;;;17.46;84.05;101697.44;4956587;28;20459;-43
2022/07/23 08:30:23;;;;;;;5.47;4.97;;;;;;;17.42;83.90;101701.59;4956357;28;20942;-42
2022/07/23 08:32:56;;;;;;;7.23;4.73;;;;;;;17.01;85.87;101704.78;4953403;28;20471;-45
2022/07/23 08:35:26;;;;;;;5.33;5.03;;;;;;;16.57;89.15;101716.38;4951029;29;20437;-46
2022/07/23 08:37:54;;;;;;;4.77;4.47;;;;;;;16.17;93.02;101726.34;4953678;28;20468;-49
2022/07/23 08:40:22;;;;;;;4.57;4.27;;;;;;;16.19;94.08;101728.84;4954650;29;20440;-48
2022/07/23 08:42:51;;;;;;;4.23;3.93;;;;;;;16.47;95.65;101726.72;4955593;28;20467;-50
2022/07/23 08:45:21;;;;;;;6.37;4.20;;;;;;;16.77;95.42;101718.97;4956272;29;20447;-46
2022/07/23 08:47:50;;;;;;;4.77;4.37;;;;;;;17.02;93.76;101718.00;4955233;28;20455;-44
2022/07/23 08:50:22;;;;;;;5.07;4.50;;;;;;;17.27;92.29;101728.88;4955882;29;20502;-46
2022/07/23 08:52:52;;;;;;;5.07;4.00;;;;;;;17.37;88.44;101728.41;4955717;28;20499;-45
2022/07/23 08:55:21;;;;;;;3.97;3.63;;;;;;;17.55;87.23;101734.75;4956269;29;20934;-44
2022/07/23 08:57:51;;;;;;;4.50;4.13;;;;;;;17.69;86.29;101733.59;4956272;29;20459;-45
2022/07/23 09:00:22;;;;;;;4.30;3.87;;;;;;;17.48;81.84;101725.00;4956253;29;20969;-48
2022/07/23 09:02:50;;;;;;;5.50;4.73;;;;;;;17.41;84.22;101730.44;4955507;28;20466;-47
2022/07/23 09:05:19;;;;;;;7.00;5.60;;;;;;;17.02;88.33;101742.25;4956044;29;20443;-45
2022/07/23 09:08:08;;;;;;;6.13;4.70;;;;;;;16.80;88.60;101742.78;4955797;28;20974;-45
2022/07/23 09:10:47;;;;;;;5.57;4.30;;;;;;;16.66;89.39;101742.03;4955579;28;20436;-47
2022/07/23 09:13:25;;;;;;;4.30;3.90;;;;;;;16.49;89.48;101740.78;4955664;29;20467;-47
2022/07/23 09:15:55;;;;;;;4.50;4.13;;;;;;;16.45;89.15;101750.34;4955300;29;21102;-48
2022/07/23 09:18:30;;;;;;;5.07;4.60;;;;;;;16.51;90.32;101749.50;4956317;28;20964;-45
2022/07/23 09:21:07;;;;;;;5.20;4.17;;;;;;;16.47;88.29;101746.38;4955545;28;20459;-45
2022/07/23 09:23:41;;;;;;;6.17;4.33;;;;;;;16.50;86.83;101740.59;4955661;29;20779;-43
2022/07/23 09:26:19;;;;;;;5.30;4.23;;;;;;;16.49;87.30;101743.47;4955514;29;20471;-44
2022/07/23 09:28:51;;;;;;;7.20;3.93;;;;;;;16.38;84.94;101744.13;4955820;29;20450;-45
2022/07/23 09:31:19;;;;;;;4.40;4.13;;;;;;;16.28;84.15;101741.03;4955133;28;20478;-45
2022/07/23 09:33:47;;;;;;;4.70;4.30;;;;;;;16.54;86.20;101741.03;4947377;29;20483;-46
2022/07/23 09:36:15;;;;;;;6.90;4.90;;;;;;;16.83;88.06;101745.91;4955327;28;20470;-46
2022/07/23 09:38:51;;;;;;;4.93;4.53;;;;;;;17.08;87.16;101741.41;4955376;29;20952;-45
2022/07/23 09:41:19;;;;;;;5.03;4.63;;;;;;;17.37;86.79;101737.31;4955187;28;20471;-48
2022/07/23 09:43:46;;;;;;;4.30;4.00;;;;;;;17.54;83.62;101733.09;4955438;29;20435;-48
2022/07/23 09:46:23;;;;;;;7.00;4.40;;;;;;;17.76;82.74;101724.63;4955337;29;20456;-46
2022/07/23 09:48:52;;;;;;;5.13;4.50;;;;;;;18.00;82.14;101727.34;4955625;28;20435;-48
2022/07/23 09:51:24;;;;;;;4.60;3.70;;;;;;;18.12;79.29;101724.72;4951273;28;20471;-48
2022/07/23 09:53:54;;;;;;;4.37;4.07;;;;;;;18.25;77.98;101733.50;4953798;28;20993;-44
2022/07/23 09:56:21;;;;;;;4.87;4.47;;;;;;;18.48;77.74;101722.06;4954235;29;20466;-48
2022/07/23 09:59:02;;;;;;;4.67;4.07;;;;;;;18.90;78.67;101731.16;4953558;28;20890;-45
2022/07/23 10:01:31;;;;;;;6.37;4.00;;;;;;;19.00;74.17;101734.13;4952763;28;20494;-48
2022/07/23 10:04:00;;;;;;;7.03;5.23;;;;;;;19.13;73.13;101725.03;4953738;29;20530;-48
2022/07/23 10:06:30;;;;;;;5.20;4.80;;;;;;;19.41;73.73;101724.47;4955072;28;20493;-48
2022/07/23 10:09:00;;;;;;;5.63;4.73;;;;;;;19.30;72.05;101734.97;4955111;29;20431;-45
2022/07/23 10:11:29;;;;;;;6.90;4.57;;;;;;;19.11;71.50;101733.38;4954772;28;20470;-46
2022/07/23 10:13:57;;;;;;;8.20;5.30;;;;;;;18.81;71.90;101734.41;4954412;29;20471;-44
2022/07/23 10:16:26;;;;;;;5.00;4.60;;;;;;;18.13;75.35;101739.84;4954425;29;20475;-50
2022/07/23 10:18:55;;;;;;;4.73;4.20;;;;;;;17.26;80.82;101754.19;4954844;29;20443;-49
2022/07/23 10:21:26;;;;;;;4.90;4.60;;;;;;;16.74;84.39;101760.63;4954504;28;20491;-47
2022/07/23 10:24:10;;;;;;;5.17;4.63;;;;;;;16.57;86.49;101762.16;4954508;29;20441;-48
2022/07/23 10:26:47;;;;;;;4.73;4.30;;;;;;;16.47;87.75;101765.25;4954458;29;20470;-46
2022/07/23 10:29:31;;;;;;;6.87;5.00;;;;;;;16.46;86.96;101771.66;4954740;29;20808;-46
2022/07/23 10:32:03;;;;;;;5.23;4.80;;;;;;;16.67;87.43;101765.22;4952883;28;20460;-45
2022/07/23 10:34:41;;;;;;;7.03;5.30;;;;;;;16.88;86.39;101767.63;4946324;29;20475;-45
2022/07/23 10:37:18;;;;;;;4.73;4.43;;;;;;;16.83;83.25;101763.91;4935088;29;20478;-48
2022/07/23 10:40:09;;;;;;;8.57;5.23;;;;;;;17.17;81.88;101765.44;4935538;29;20429;-50
2022/07/23 10:42:38;;;;;;;6.37;4.10;;;;;;;17.26;79.78;101775.78;4934549;28;20475;-47
2022/07/23 10:45:25;;;;;;;12.93;5.23;;;;;;;17.59;80.77;101770.22;4935271;29;20523;-44
2022/07/23 10:47:52;;;;;;;4.63;4.13;;;;;;;17.93;77.16;101766.19;4935325;29;20464;-44
2022/07/23 10:50:24;;;;;;;4.83;4.13;;;;;;;18.03;75.26;101761.97;4935083;29;20962;-46
2022/07/23 10:53:18;;;;;;;8.33;4.43;;;;;;;18.56;73.61;101766.88;4934692;28;20475;-45
2022/07/23 10:55:50;;;;;;;5.47;4.60;;;;;;;18.62;69.68;101766.81;4944217;29;20491;-46
2022/07/23 10:58:23;;;;;;;6.83;4.00;;;;;;;18.77;70.91;101769.16;4935146;29;20436;-48
2022/07/23 11:00:51;;;;;;;5.03;4.50;;;;;;;18.74;69.76;101766.88;4934186;28;20436;-45
2022/07/23 11:03:37;;;;;;;7.93;4.43;;;;;;;19.09;68.36;101767.06;4934437;29;20935;-44
2022/07/23 11:06:06;;;;;;;5.10;4.60;;;;;;;19.34;69.56;101767.78;4934471;29;20463;-47
2022/07/23 11:08:33;;;;;;;4.87;4.47;;;;;;;19.56;68.72;101762.72;4934824;29;20432;-46
2022/07/23 11:11:12;;;;;;;4.40;4.07;;;;;;;19.77;67.89;101771.13;4934418;28;20459;-43
2022/07/23 11:13:49;;;;;;;5.57;5.00;;;;;;;19.76;66.18;101774.06;4934548;29;20818;-44
2022/07/23 11:16:20;;;;;;;5.50;5.00;;;;;;;19.74;66.38;101774.28;4934202;29;20463;-43
2022/07/23 11:19:05;;;;;;;4.57;4.30;;;;;;;19.54;64.80;101767.53;4934766;29;20432;-42
2022/07/23 11:21:52;;;;;;;5.17;4.80;;;;;;;19.46;67.12;101779.50;4934259;28;20472;-45
2022/07/23 11:24:24;;;;;;;5.00;4.77;;;;;;;19.25;67.49;101772.69;4934353;29;20436;-42
2022/07/23 11:27:11;;;;;;;6.03;4.90;;;;;;;19.23;67.72;101776.69;4934388;29;20503;-46
2022/07/23 11:29:46;;;;;;;5.90;5.60;;;;;;;19.23;68.71;101772.09;4949645;29;20438;-46
2022/07/23 11:32:39;;;;;;;5.27;4.87;;;;;;;19.27;67.20;101778.69;4921627;28;20499;-44
2022/07/23 11:35:22;;;;;;;7.37;6.50;;;;;;;19.38;67.71;101765.47;4942179;29;20561;-45